sensor_id;sensor_type;location;lat;lon;timestamp;P1;durP1;ratioP1;P2;durP2;ratioP2
52386;SDS011;38317;53.084;6.960;2023-09-18T00:17:42;17.58;;;14.05;;
52386;SDS011;38317;53.084;6.960;2023-09-18T00:20:08;18.15;;;14.02;;
52386;SDS011;38317;53.084;6.960;2023-09-18T00:22:34;18.17;;;14.60;;
52386;SDS011;38317;53.084;6.960;2023-09-18T00:25:00;17.38;;;14.18;;
52386;SDS011;38317;53.084;6.960;2023-09-18T00:27:27;16.15;;;13.82;;
52386;SDS011;38317;53.084;6.960;2023-09-18T00:29:53;17.33;;;14.50;;
52386;SDS011;38317;53.084;6.960;2023-09-18T00:34:55;16.23;;;14.18;;
52386;SDS011;38317;53.084;6.960;2023-09-18T00:39:49;16.55;;;14.68;;
52386;SDS011;38317;53.084;6.960;2023-09-18T00:42:46;16.30;;;14.25;;
52386;SDS011;38317;53.084;6.960;2023-09-18T00:48:21;15.48;;;13.25;;
52386;SDS011;38317;53.084;6.960;2023-09-18T00:50:48;15.82;;;13.18;;
52386;SDS011;38317;53.084;6.960;2023-09-18T00:53:15;14.90;;;13.00;;
52386;SDS011;38317;53.084;6.960;2023-09-18T00:55:42;15.18;;;13.30;;
52386;SDS011;38317;53.084;6.960;2023-09-18T00:58:08;16.58;;;12.80;;
52386;SDS011;38317;53.084;6.960;2023-09-18T01:00:34;16.88;;;13.45;;
52386;SDS011;38317;53.084;6.960;2023-09-18T01:03:01;15.52;;;13.60;;
52386;SDS011;38317;53.084;6.960;2023-09-18T01:05:30;16.02;;;13.73;;
52386;SDS011;38317;53.084;6.960;2023-09-18T01:07:56;16.85;;;13.32;;
52386;SDS011;38317;53.084;6.960;2023-09-18T01:10:23;16.23;;;13.90;;
52386;SDS011;38317;53.084;6.960;2023-09-18T01:12:55;16.73;;;12.88;;
52386;SDS011;38317;53.084;6.960;2023-09-18T01:15:32;15.55;;;12.57;;
52386;SDS011;38317;53.084;6.960;2023-09-18T01:18:00;14.38;;;12.20;;
52386;SDS011;38317;53.084;6.960;2023-09-18T01:20:28;15.40;;;13.20;;
52386;SDS011;38317;53.084;6.960;2023-09-18T01:22:54;16.27;;;13.25;;
52386;SDS011;38317;53.084;6.960;2023-09-18T01:25:20;15.77;;;13.13;;
52386;SDS011;38317;53.084;6.960;2023-09-18T01:27:46;15.30;;;13.45;;
52386;SDS011;38317;53.084;6.960;2023-09-18T01:30:12;16.85;;;13.32;;
52386;SDS011;38317;53.084;6.960;2023-09-18T01:32:40;17.40;;;14.02;;
52386;SDS011;38317;53.084;6.960;2023-09-18T01:35:07;15.80;;;13.48;;
52386;SDS011;38317;53.084;6.960;2023-09-18T01:37:34;17.42;;;13.48;;
52386;SDS011;38317;53.084;6.960;2023-09-18T01:40:02;15.68;;;13.27;;
52386;SDS011;38317;53.084;6.960;2023-09-18T01:42:31;17.88;;;14.00;;
52386;SDS011;38317;53.084;6.960;2023-09-18T01:44:57;15.13;;;13.38;;
52386;SDS011;38317;53.084;6.960;2023-09-18T01:47:24;16.48;;;13.43;;
52386;SDS011;38317;53.084;6.960;2023-09-18T01:49:52;15.68;;;13.43;;
52386;SDS011;38317;53.084;6.960;2023-09-18T01:52:18;18.63;;;13.57;;
52386;SDS011;38317;53.084;6.960;2023-09-18T01:54:44;18.60;;;14.40;;
52386;SDS011;38317;53.084;6.960;2023-09-18T01:57:10;16.23;;;13.70;;
52386;SDS011;38317;53.084;6.960;2023-09-18T01:59:37;18.85;;;13.65;;
52386;SDS011;38317;53.084;6.960;2023-09-18T02:02:04;16.60;;;13.18;;
52386;SDS011;38317;53.084;6.960;2023-09-18T02:04:33;16.17;;;13.40;;
52386;SDS011;38317;53.084;6.960;2023-09-18T02:06:59;16.60;;;13.98;;
52386;SDS011;38317;53.084;6.960;2023-09-18T02:09:25;16.70;;;13.80;;
52386;SDS011;38317;53.084;6.960;2023-09-18T02:11:52;17.38;;;13.95;;
52386;SDS011;38317;53.084;6.960;2023-09-18T02:14:18;15.57;;;13.88;;
52386;SDS011;38317;53.084;6.960;2023-09-18T02:16:44;20.70;;;14.55;;
52386;SDS011;38317;53.084;6.960;2023-09-18T02:19:11;15.98;;;13.55;;
52386;SDS011;38317;53.084;6.960;2023-09-18T02:21:38;16.33;;;13.65;;
52386;SDS011;38317;53.084;6.960;2023-09-18T02:24:04;16.80;;;14.00;;
52386;SDS011;38317;53.084;6.960;2023-09-18T02:26:30;16.02;;;13.52;;
52386;SDS011;38317;53.084;6.960;2023-09-18T02:28:58;16.13;;;13.63;;
52386;SDS011;38317;53.084;6.960;2023-09-18T02:31:24;16.20;;;14.20;;
52386;SDS011;38317;53.084;6.960;2023-09-18T02:33:51;16.92;;;13.55;;
52386;SDS011;38317;53.084;6.960;2023-09-18T02:36:17;18.60;;;14.30;;
52386;SDS011;38317;53.084;6.960;2023-09-18T02:38:43;16.98;;;13.85;;
52386;SDS011;38317;53.084;6.960;2023-09-18T02:41:09;17.33;;;13.27;;
52386;SDS011;38317;53.084;6.960;2023-09-18T02:43:35;16.83;;;13.00;;
52386;SDS011;38317;53.084;6.960;2023-09-18T02:46:05;15.30;;;13.52;;
52386;SDS011;38317;53.084;6.960;2023-09-18T02:48:31;14.52;;;12.05;;
52386;SDS011;38317;53.084;6.960;2023-09-18T02:51:00;16.45;;;12.73;;
52386;SDS011;38317;53.084;6.960;2023-09-18T02:53:27;16.17;;;12.13;;
52386;SDS011;38317;53.084;6.960;2023-09-18T02:55:54;13.95;;;11.48;;
52386;SDS011;38317;53.084;6.960;2023-09-18T02:58:21;15.38;;;11.35;;
52386;SDS011;38317;53.084;6.960;2023-09-18T03:00:49;13.88;;;11.43;;
52386;SDS011;38317;53.084;6.960;2023-09-18T03:03:15;14.77;;;12.00;;
52386;SDS011;38317;53.084;6.960;2023-09-18T03:05:42;15.20;;;11.80;;
52386;SDS011;38317;53.084;6.960;2023-09-18T03:08:08;15.32;;;12.18;;
52386;SDS011;38317;53.084;6.960;2023-09-18T03:10:35;15.23;;;12.40;;
52386;SDS011;38317;53.084;6.960;2023-09-18T03:13:02;14.63;;;11.65;;
52386;SDS011;38317;53.084;6.960;2023-09-18T03:15:28;17.27;;;11.45;;
52386;SDS011;38317;53.084;6.960;2023-09-18T03:17:55;15.82;;;11.85;;
52386;SDS011;38317;53.084;6.960;2023-09-18T03:20:22;15.35;;;11.75;;
52386;SDS011;38317;53.084;6.960;2023-09-18T03:22:49;16.00;;;12.10;;
52386;SDS011;38317;53.084;6.960;2023-09-18T03:25:15;15.35;;;11.40;;
52386;SDS011;38317;53.084;6.960;2023-09-18T03:27:41;12.82;;;10.75;;
52386;SDS011;38317;53.084;6.960;2023-09-18T03:30:07;12.55;;;10.55;;
52386;SDS011;38317;53.084;6.960;2023-09-18T03:32:34;12.63;;;10.68;;
52386;SDS011;38317;53.084;6.960;2023-09-18T03:35:01;13.00;;;10.60;;
52386;SDS011;38317;53.084;6.960;2023-09-18T03:37:28;13.35;;;10.65;;
52386;SDS011;38317;53.084;6.960;2023-09-18T03:39:54;13.65;;;10.30;;
52386;SDS011;38317;53.084;6.960;2023-09-18T03:42:20;13.63;;;11.18;;
52386;SDS011;38317;53.084;6.960;2023-09-18T03:44:46;13.65;;;10.35;;
52386;SDS011;38317;53.084;6.960;2023-09-18T03:47:12;13.30;;;10.13;;
52386;SDS011;38317;53.084;6.960;2023-09-18T03:49:38;12.90;;;10.07;;
52386;SDS011;38317;53.084;6.960;2023-09-18T03:52:04;11.65;;;9.20;;
52386;SDS011;38317;53.084;6.960;2023-09-18T03:54:30;15.70;;;10.77;;
52386;SDS011;38317;53.084;6.960;2023-09-18T03:56:56;13.13;;;9.85;;
52386;SDS011;38317;53.084;6.960;2023-09-18T03:59:23;12.00;;;9.48;;
52386;SDS011;38317;53.084;6.960;2023-09-18T04:01:49;12.25;;;9.68;;
52386;SDS011;38317;53.084;6.960;2023-09-18T04:04:15;11.95;;;9.77;;
52386;SDS011;38317;53.084;6.960;2023-09-18T04:06:42;13.40;;;10.43;;
52386;SDS011;38317;53.084;6.960;2023-09-18T04:09:08;14.80;;;10.15;;
52386;SDS011;38317;53.084;6.960;2023-09-18T04:11:35;15.57;;;10.20;;
52386;SDS011;38317;53.084;6.960;2023-09-18T04:14:01;16.33;;;10.60;;
52386;SDS011;38317;53.084;6.960;2023-09-18T04:16:30;12.68;;;9.85;;
52386;SDS011;38317;53.084;6.960;2023-09-18T04:19:00;13.93;;;10.55;;
52386;SDS011;38317;53.084;6.960;2023-09-18T04:21:26;14.63;;;9.90;;
52386;SDS011;38317;53.084;6.960;2023-09-18T04:23:52;15.85;;;10.20;;
52386;SDS011;38317;53.084;6.960;2023-09-18T04:26:23;16.00;;;10.55;;
52386;SDS011;38317;53.084;6.960;2023-09-18T04:28:49;14.75;;;10.43;;
52386;SDS011;38317;53.084;6.960;2023-09-18T04:31:15;13.30;;;9.98;;
52386;SDS011;38317;53.084;6.960;2023-09-18T04:33:41;13.80;;;10.05;;
52386;SDS011;38317;53.084;6.960;2023-09-18T04:36:07;14.63;;;10.07;;
52386;SDS011;38317;53.084;6.960;2023-09-18T04:38:33;12.90;;;9.98;;
52386;SDS011;38317;53.084;6.960;2023-09-18T04:41:00;13.02;;;9.90;;
52386;SDS011;38317;53.084;6.960;2023-09-18T04:43:26;14.43;;;9.60;;
52386;SDS011;38317;53.084;6.960;2023-09-18T04:45:54;12.75;;;9.68;;
52386;SDS011;38317;53.084;6.960;2023-09-18T04:48:21;13.25;;;9.48;;
52386;SDS011;38317;53.084;6.960;2023-09-18T04:50:48;14.93;;;10.10;;
52386;SDS011;38317;53.084;6.960;2023-09-18T04:53:14;13.20;;;9.88;;
52386;SDS011;38317;53.084;6.960;2023-09-18T04:55:40;15.80;;;9.65;;
52386;SDS011;38317;53.084;6.960;2023-09-18T04:58:06;12.23;;;9.10;;
52386;SDS011;38317;53.084;6.960;2023-09-18T05:00:33;13.93;;;10.15;;
52386;SDS011;38317;53.084;6.960;2023-09-18T05:02:59;14.07;;;8.70;;
52386;SDS011;38317;53.084;6.960;2023-09-18T05:05:26;12.43;;;9.20;;
52386;SDS011;38317;53.084;6.960;2023-09-18T05:07:54;12.05;;;8.93;;
52386;SDS011;38317;53.084;6.960;2023-09-18T05:10:20;13.07;;;9.05;;
52386;SDS011;38317;53.084;6.960;2023-09-18T05:12:48;13.25;;;9.15;;
52386;SDS011;38317;53.084;6.960;2023-09-18T05:15:15;12.02;;;8.82;;
52386;SDS011;38317;53.084;6.960;2023-09-18T05:20:11;13.45;;;9.68;;
52386;SDS011;38317;53.084;6.960;2023-09-18T05:22:39;12.63;;;8.45;;
52386;SDS011;38317;53.084;6.960;2023-09-18T05:25:05;13.27;;;8.23;;
52386;SDS011;38317;53.084;6.960;2023-09-18T05:27:32;15.10;;;8.60;;
52386;SDS011;38317;53.084;6.960;2023-09-18T05:29:58;13.77;;;8.63;;
52386;SDS011;38317;53.084;6.960;2023-09-18T05:32:24;14.45;;;8.63;;
52386;SDS011;38317;53.084;6.960;2023-09-18T05:34:50;13.57;;;8.88;;
52386;SDS011;38317;53.084;6.960;2023-09-18T05:37:16;13.43;;;8.40;;
52386;SDS011;38317;53.084;6.960;2023-09-18T05:39:43;12.18;;;8.10;;
52386;SDS011;38317;53.084;6.960;2023-09-18T05:42:09;12.27;;;8.15;;
52386;SDS011;38317;53.084;6.960;2023-09-18T05:44:35;13.65;;;8.05;;
52386;SDS011;38317;53.084;6.960;2023-09-18T05:47:04;13.43;;;8.23;;
52386;SDS011;38317;53.084;6.960;2023-09-18T05:49:30;12.93;;;8.20;;
52386;SDS011;38317;53.084;6.960;2023-09-18T05:51:56;9.95;;;7.25;;
52386;SDS011;38317;53.084;6.960;2023-09-18T05:54:22;10.85;;;7.07;;
52386;SDS011;38317;53.084;6.960;2023-09-18T05:56:49;10.60;;;6.90;;
52386;SDS011;38317;53.084;6.960;2023-09-18T05:59:16;9.80;;;6.85;;
52386;SDS011;38317;53.084;6.960;2023-09-18T06:01:44;10.38;;;7.22;;
52386;SDS011;38317;53.084;6.960;2023-09-18T06:04:10;10.20;;;6.20;;
52386;SDS011;38317;53.084;6.960;2023-09-18T06:06:38;10.70;;;6.40;;
52386;SDS011;38317;53.084;6.960;2023-09-18T06:09:05;10.38;;;6.50;;
52386;SDS011;38317;53.084;6.960;2023-09-18T06:14:02;10.65;;;6.57;;
52386;SDS011;38317;53.084;6.960;2023-09-18T06:16:29;10.25;;;6.55;;
52386;SDS011;38317;53.084;6.960;2023-09-18T06:18:55;11.55;;;6.85;;
52386;SDS011;38317;53.084;6.960;2023-09-18T06:21:21;10.23;;;6.10;;
52386;SDS011;38317;53.084;6.960;2023-09-18T06:23:47;12.38;;;7.03;;
52386;SDS011;38317;53.084;6.960;2023-09-18T06:26:13;11.10;;;6.72;;
52386;SDS011;38317;53.084;6.960;2023-09-18T06:28:39;9.82;;;6.03;;
52386;SDS011;38317;53.084;6.960;2023-09-18T06:31:05;9.98;;;5.85;;
52386;SDS011;38317;53.084;6.960;2023-09-18T06:33:32;12.70;;;6.55;;
52386;SDS011;38317;53.084;6.960;2023-09-18T06:35:58;10.07;;;5.97;;
52386;SDS011;38317;53.084;6.960;2023-09-18T06:38:24;9.23;;;6.30;;
52386;SDS011;38317;53.084;6.960;2023-09-18T06:40:50;11.48;;;5.95;;
52386;SDS011;38317;53.084;6.960;2023-09-18T06:43:18;9.25;;;5.60;;
52386;SDS011;38317;53.084;6.960;2023-09-18T06:45:44;10.27;;;6.15;;
52386;SDS011;38317;53.084;6.960;2023-09-18T06:48:10;12.90;;;5.57;;
52386;SDS011;38317;53.084;6.960;2023-09-18T06:50:39;11.73;;;5.45;;
52386;SDS011;38317;53.084;6.960;2023-09-18T06:53:05;13.00;;;5.82;;
52386;SDS011;38317;53.084;6.960;2023-09-18T06:55:31;9.57;;;5.60;;
52386;SDS011;38317;53.084;6.960;2023-09-18T06:57:57;10.20;;;5.20;;
52386;SDS011;38317;53.084;6.960;2023-09-18T07:00:23;10.82;;;5.97;;
52386;SDS011;38317;53.084;6.960;2023-09-18T07:02:50;8.73;;;4.78;;
52386;SDS011;38317;53.084;6.960;2023-09-18T07:05:16;8.05;;;5.43;;
52386;SDS011;38317;53.084;6.960;2023-09-18T07:07:42;12.18;;;5.57;;
52386;SDS011;38317;53.084;6.960;2023-09-18T07:10:08;9.73;;;5.78;;
52386;SDS011;38317;53.084;6.960;2023-09-18T07:12:34;12.18;;;5.93;;
52386;SDS011;38317;53.084;6.960;2023-09-18T07:15:02;14.38;;;5.72;;
52386;SDS011;38317;53.084;6.960;2023-09-18T07:17:29;14.15;;;6.40;;
52386;SDS011;38317;53.084;6.960;2023-09-18T07:19:55;12.05;;;6.35;;
52386;SDS011;38317;53.084;6.960;2023-09-18T07:22:21;12.32;;;6.47;;
52386;SDS011;38317;53.084;6.960;2023-09-18T07:24:47;11.15;;;6.38;;
52386;SDS011;38317;53.084;6.960;2023-09-18T07:27:14;9.80;;;6.35;;
52386;SDS011;38317;53.084;6.960;2023-09-18T07:29:40;10.60;;;6.43;;
52386;SDS011;38317;53.084;6.960;2023-09-18T07:32:06;11.60;;;6.30;;
52386;SDS011;38317;53.084;6.960;2023-09-18T07:34:34;12.32;;;6.85;;
52386;SDS011;38317;53.084;6.960;2023-09-18T07:37:00;11.02;;;6.93;;
52386;SDS011;38317;53.084;6.960;2023-09-18T07:39:26;12.32;;;6.78;;
52386;SDS011;38317;53.084;6.960;2023-09-18T07:41:52;12.75;;;6.95;;
52386;SDS011;38317;53.084;6.960;2023-09-18T07:44:21;11.77;;;7.18;;
52386;SDS011;38317;53.084;6.960;2023-09-18T07:46:47;9.93;;;6.63;;
52386;SDS011;38317;53.084;6.960;2023-09-18T07:49:13;10.60;;;6.63;;
52386;SDS011;38317;53.084;6.960;2023-09-18T07:51:39;11.02;;;7.05;;
52386;SDS011;38317;53.084;6.960;2023-09-18T07:54:06;9.52;;;6.30;;
52386;SDS011;38317;53.084;6.960;2023-09-18T07:56:33;10.02;;;6.43;;
52386;SDS011;38317;53.084;6.960;2023-09-18T07:59:01;9.98;;;5.88;;
52386;SDS011;38317;53.084;6.960;2023-09-18T08:01:28;12.70;;;5.63;;
52386;SDS011;38317;53.084;6.960;2023-09-18T08:03:56;10.00;;;5.50;;
52386;SDS011;38317;53.084;6.960;2023-09-18T08:06:24;7.95;;;4.80;;
52386;SDS011;38317;53.084;6.960;2023-09-18T08:08:51;10.23;;;4.82;;
52386;SDS011;38317;53.084;6.960;2023-09-18T08:11:18;7.93;;;4.65;;
52386;SDS011;38317;53.084;6.960;2023-09-18T08:13:44;6.25;;;4.28;;
52386;SDS011;38317;53.084;6.960;2023-09-18T08:16:10;8.88;;;4.53;;
52386;SDS011;38317;53.084;6.960;2023-09-18T08:18:36;6.80;;;4.03;;
52386;SDS011;38317;53.084;6.960;2023-09-18T08:21:06;9.52;;;4.90;;
52386;SDS011;38317;53.084;6.960;2023-09-18T08:23:34;6.00;;;4.03;;
52386;SDS011;38317;53.084;6.960;2023-09-18T08:26:01;7.68;;;4.50;;
52386;SDS011;38317;53.084;6.960;2023-09-18T08:28:29;8.63;;;4.40;;
52386;SDS011;38317;53.084;6.960;2023-09-18T08:30:55;7.35;;;4.13;;
52386;SDS011;38317;53.084;6.960;2023-09-18T08:33:22;7.45;;;4.60;;
52386;SDS011;38317;53.084;6.960;2023-09-18T08:35:48;6.72;;;4.22;;
52386;SDS011;38317;53.084;6.960;2023-09-18T08:38:14;9.50;;;4.78;;
52386;SDS011;38317;53.084;6.960;2023-09-18T08:40:41;6.93;;;4.50;;
52386;SDS011;38317;53.084;6.960;2023-09-18T08:43:07;8.82;;;4.80;;
52386;SDS011;38317;53.084;6.960;2023-09-18T08:45:35;10.32;;;5.47;;
52386;SDS011;38317;53.084;6.960;2023-09-18T08:48:03;11.95;;;6.40;;
52386;SDS011;38317;53.084;6.960;2023-09-18T08:50:30;9.35;;;6.18;;
52386;SDS011;38317;53.084;6.960;2023-09-18T08:52:56;9.63;;;5.57;;
52386;SDS011;38317;53.084;6.960;2023-09-18T08:55:23;10.32;;;5.90;;
52386;SDS011;38317;53.084;6.960;2023-09-18T08:57:50;9.07;;;5.80;;
52386;SDS011;38317;53.084;6.960;2023-09-18T09:00:16;9.95;;;5.82;;
52386;SDS011;38317;53.084;6.960;2023-09-18T09:02:45;10.25;;;5.93;;
52386;SDS011;38317;53.084;6.960;2023-09-18T09:05:14;11.18;;;6.22;;
52386;SDS011;38317;53.084;6.960;2023-09-18T09:07:40;12.80;;;6.63;;
52386;SDS011;38317;53.084;6.960;2023-09-18T09:10:06;11.00;;;7.25;;
52386;SDS011;38317;53.084;6.960;2023-09-18T09:15:18;12.50;;;7.13;;
52386;SDS011;38317;53.084;6.960;2023-09-18T09:17:44;10.80;;;7.03;;
52386;SDS011;38317;53.084;6.960;2023-09-18T09:20:12;11.02;;;6.65;;
52386;SDS011;38317;53.084;6.960;2023-09-18T09:22:39;12.13;;;7.35;;
52386;SDS011;38317;53.084;6.960;2023-09-18T09:25:27;9.40;;;6.68;;
52386;SDS011;38317;53.084;6.960;2023-09-18T09:27:52;14.40;;;8.75;;
52386;SDS011;38317;53.084;6.960;2023-09-18T09:30:19;12.75;;;7.25;;
52386;SDS011;38317;53.084;6.960;2023-09-18T09:32:49;11.07;;;7.72;;
52386;SDS011;38317;53.084;6.960;2023-09-18T09:35:23;12.68;;;7.35;;
52386;SDS011;38317;53.084;6.960;2023-09-18T09:37:52;10.90;;;7.70;;
52386;SDS011;38317;53.084;6.960;2023-09-18T09:40:20;12.57;;;7.82;;
52386;SDS011;38317;53.084;6.960;2023-09-18T09:42:47;12.25;;;8.02;;
52386;SDS011;38317;53.084;6.960;2023-09-18T09:45:15;12.60;;;7.97;;
52386;SDS011;38317;53.084;6.960;2023-09-18T09:47:41;12.45;;;7.95;;
52386;SDS011;38317;53.084;6.960;2023-09-18T09:50:09;12.68;;;7.55;;
52386;SDS011;38317;53.084;6.960;2023-09-18T09:52:36;12.35;;;7.72;;
52386;SDS011;38317;53.084;6.960;2023-09-18T09:55:24;11.70;;;7.63;;
52386;SDS011;38317;53.084;6.960;2023-09-18T10:00:16;13.07;;;8.02;;
52386;SDS011;38317;53.084;6.960;2023-09-18T10:03:02;14.68;;;8.75;;
52386;SDS011;38317;53.084;6.960;2023-09-18T10:05:33;13.38;;;9.10;;
52386;SDS011;38317;53.084;6.960;2023-09-18T10:10:35;12.55;;;8.60;;
52386;SDS011;38317;53.084;6.960;2023-09-18T10:13:12;11.43;;;7.53;;
52386;SDS011;38317;53.084;6.960;2023-09-18T10:15:41;11.55;;;8.25;;
52386;SDS011;38317;53.084;6.960;2023-09-18T10:18:16;14.25;;;9.38;;
52386;SDS011;38317;53.084;6.960;2023-09-18T10:20:43;13.43;;;8.80;;
52386;SDS011;38317;53.084;6.960;2023-09-18T10:23:12;13.65;;;7.85;;
52386;SDS011;38317;53.084;6.960;2023-09-18T10:25:46;12.75;;;7.70;;
52386;SDS011;38317;53.084;6.960;2023-09-18T10:28:17;11.75;;;8.35;;
52386;SDS011;38317;53.084;6.960;2023-09-18T10:30:43;13.50;;;7.97;;
52386;SDS011;38317;53.084;6.960;2023-09-18T10:33:10;12.23;;;8.43;;
52386;SDS011;38317;53.084;6.960;2023-09-18T10:35:36;11.75;;;7.68;;
52386;SDS011;38317;53.084;6.960;2023-09-18T10:38:03;11.63;;;7.32;;
52386;SDS011;38317;53.084;6.960;2023-09-18T10:40:31;10.05;;;6.97;;
52386;SDS011;38317;53.084;6.960;2023-09-18T10:42:58;10.60;;;7.22;;
52386;SDS011;38317;53.084;6.960;2023-09-18T10:45:27;10.77;;;6.93;;
52386;SDS011;38317;53.084;6.960;2023-09-18T10:47:53;10.85;;;6.93;;
52386;SDS011;38317;53.084;6.960;2023-09-18T10:50:26;10.48;;;6.78;;
52386;SDS011;38317;53.084;6.960;2023-09-18T10:52:52;10.90;;;6.15;;
52386;SDS011;38317;53.084;6.960;2023-09-18T10:55:19;9.63;;;6.30;;
52386;SDS011;38317;53.084;6.960;2023-09-18T10:57:54;9.63;;;6.00;;
52386;SDS011;38317;53.084;6.960;2023-09-18T11:00:27;9.23;;;5.70;;
52386;SDS011;38317;53.084;6.960;2023-09-18T11:02:55;8.50;;;5.45;;
52386;SDS011;38317;53.084;6.960;2023-09-18T11:05:34;8.23;;;5.30;;
52386;SDS011;38317;53.084;6.960;2023-09-18T11:08:44;9.73;;;5.43;;
52386;SDS011;38317;53.084;6.960;2023-09-18T11:13:52;7.68;;;3.88;;
52386;SDS011;38317;53.084;6.960;2023-09-18T11:21:28;6.75;;;3.53;;
52386;SDS011;38317;53.084;6.960;2023-09-18T11:23:58;5.93;;;3.10;;
52386;SDS011;38317;53.084;6.960;2023-09-18T11:26:29;4.43;;;2.80;;
52386;SDS011;38317;53.084;6.960;2023-09-18T11:28:58;7.20;;;3.25;;
52386;SDS011;38317;53.084;6.960;2023-09-18T11:40:28;4.78;;;2.38;;
52386;SDS011;38317;53.084;6.960;2023-09-18T11:43:29;7.50;;;2.78;;
52386;SDS011;38317;53.084;6.960;2023-09-18T11:45:59;7.80;;;3.22;;
52386;SDS011;38317;53.084;6.960;2023-09-18T11:48:29;5.03;;;2.88;;
52386;SDS011;38317;53.084;6.960;2023-09-18T12:14:44;5.10;;;1.95;;
52386;SDS011;38317;53.084;6.960;2023-09-18T12:17:28;3.53;;;1.80;;
52386;SDS011;38317;53.084;6.960;2023-09-18T12:19:55;2.95;;;1.85;;
52386;SDS011;38317;53.084;6.960;2023-09-18T12:22:28;3.58;;;1.60;;
52386;SDS011;38317;53.084;6.960;2023-09-18T12:25:10;4.00;;;1.70;;
52386;SDS011;38317;53.084;6.960;2023-09-18T12:30:06;4.35;;;2.05;;
52386;SDS011;38317;53.084;6.960;2023-09-18T12:32:32;4.55;;;1.52;;
52386;SDS011;38317;53.084;6.960;2023-09-18T12:34:58;4.13;;;1.40;;
52386;SDS011;38317;53.084;6.960;2023-09-18T12:37:24;4.35;;;1.48;;
52386;SDS011;38317;53.084;6.960;2023-09-18T12:39:51;3.35;;;1.42;;
52386;SDS011;38317;53.084;6.960;2023-09-18T12:42:20;2.45;;;1.35;;
52386;SDS011;38317;53.084;6.960;2023-09-18T12:44:47;4.32;;;1.45;;
52386;SDS011;38317;53.084;6.960;2023-09-18T12:47:13;4.30;;;1.40;;
52386;SDS011;38317;53.084;6.960;2023-09-18T12:49:39;5.97;;;2.00;;
52386;SDS011;38317;53.084;6.960;2023-09-18T12:52:05;4.30;;;2.03;;
52386;SDS011;38317;53.084;6.960;2023-09-18T12:54:44;5.82;;;2.13;;
52386;SDS011;38317;53.084;6.960;2023-09-18T12:57:19;4.47;;;2.20;;
52386;SDS011;38317;53.084;6.960;2023-09-18T12:59:45;4.55;;;2.25;;
52386;SDS011;38317;53.084;6.960;2023-09-18T13:02:14;3.45;;;2.00;;
52386;SDS011;38317;53.084;6.960;2023-09-18T13:04:40;4.38;;;2.10;;
52386;SDS011;38317;53.084;6.960;2023-09-18T13:07:09;3.35;;;2.00;;
52386;SDS011;38317;53.084;6.960;2023-09-18T13:09:37;3.90;;;2.33;;
52386;SDS011;38317;53.084;6.960;2023-09-18T13:12:03;3.55;;;2.17;;
52386;SDS011;38317;53.084;6.960;2023-09-18T13:14:30;3.30;;;1.92;;
52386;SDS011;38317;53.084;6.960;2023-09-18T13:17:02;3.25;;;1.73;;
52386;SDS011;38317;53.084;6.960;2023-09-18T13:19:29;2.70;;;1.70;;
52386;SDS011;38317;53.084;6.960;2023-09-18T13:21:56;5.30;;;2.00;;
52386;SDS011;38317;53.084;6.960;2023-09-18T13:24:27;4.40;;;1.80;;
52386;SDS011;38317;53.084;6.960;2023-09-18T13:26:53;4.63;;;2.20;;
52386;SDS011;38317;53.084;6.960;2023-09-18T13:29:20;4.50;;;2.17;;
52386;SDS011;38317;53.084;6.960;2023-09-18T13:31:46;4.70;;;2.50;;
52386;SDS011;38317;53.084;6.960;2023-09-18T13:34:12;4.70;;;1.85;;
52386;SDS011;38317;53.084;6.960;2023-09-18T13:36:43;2.22;;;1.38;;
52386;SDS011;38317;53.084;6.960;2023-09-18T13:39:09;3.08;;;1.23;;
52386;SDS011;38317;53.084;6.960;2023-09-18T13:41:35;2.65;;;1.13;;
52386;SDS011;38317;53.084;6.960;2023-09-18T13:44:03;2.92;;;1.33;;
52386;SDS011;38317;53.084;6.960;2023-09-18T13:46:30;3.25;;;1.33;;
52386;SDS011;38317;53.084;6.960;2023-09-18T13:48:56;2.80;;;1.30;;
52386;SDS011;38317;53.084;6.960;2023-09-18T13:51:22;4.93;;;1.40;;
52386;SDS011;38317;53.084;6.960;2023-09-18T13:53:48;4.75;;;1.65;;
52386;SDS011;38317;53.084;6.960;2023-09-18T13:56:14;4.05;;;1.23;;
52386;SDS011;38317;53.084;6.960;2023-09-18T13:58:40;5.85;;;1.52;;
52386;SDS011;38317;53.084;6.960;2023-09-18T14:01:07;6.68;;;1.60;;
52386;SDS011;38317;53.084;6.960;2023-09-18T14:03:33;2.83;;;1.70;;
52386;SDS011;38317;53.084;6.960;2023-09-18T14:05:59;3.10;;;1.60;;
52386;SDS011;38317;53.084;6.960;2023-09-18T14:08:25;3.83;;;1.90;;
52386;SDS011;38317;53.084;6.960;2023-09-18T14:10:52;3.47;;;1.77;;
52386;SDS011;38317;53.084;6.960;2023-09-18T14:13:18;3.63;;;1.77;;
52386;SDS011;38317;53.084;6.960;2023-09-18T14:15:44;5.15;;;2.08;;
52386;SDS011;38317;53.084;6.960;2023-09-18T14:18:10;5.43;;;2.33;;
52386;SDS011;38317;53.084;6.960;2023-09-18T14:20:41;6.80;;;2.38;;
52386;SDS011;38317;53.084;6.960;2023-09-18T14:23:07;4.22;;;2.13;;
52386;SDS011;38317;53.084;6.960;2023-09-18T14:25:33;6.97;;;2.63;;
52386;SDS011;38317;53.084;6.960;2023-09-18T14:27:59;8.00;;;2.80;;
52386;SDS011;38317;53.084;6.960;2023-09-18T14:30:26;8.30;;;3.22;;
52386;SDS011;38317;53.084;6.960;2023-09-18T14:32:56;6.25;;;2.80;;
52386;SDS011;38317;53.084;6.960;2023-09-18T14:35:22;3.13;;;2.40;;
52386;SDS011;38317;53.084;6.960;2023-09-18T14:37:49;5.25;;;2.70;;
52386;SDS011;38317;53.084;6.960;2023-09-18T14:40:15;4.60;;;2.38;;
52386;SDS011;38317;53.084;6.960;2023-09-18T14:42:41;4.53;;;2.17;;
52386;SDS011;38317;53.084;6.960;2023-09-18T14:45:07;5.97;;;2.38;;
52386;SDS011;38317;53.084;6.960;2023-09-18T14:47:34;4.85;;;2.45;;
52386;SDS011;38317;53.084;6.960;2023-09-18T14:50:00;4.20;;;2.28;;
52386;SDS011;38317;53.084;6.960;2023-09-18T14:52:26;6.18;;;2.10;;
52386;SDS011;38317;53.084;6.960;2023-09-18T14:54:53;4.63;;;2.10;;
52386;SDS011;38317;53.084;6.960;2023-09-18T14:57:19;5.05;;;2.00;;
52386;SDS011;38317;53.084;6.960;2023-09-18T14:59:45;4.15;;;1.80;;
52386;SDS011;38317;53.084;6.960;2023-09-18T15:02:15;3.40;;;1.80;;
52386;SDS011;38317;53.084;6.960;2023-09-18T15:04:43;3.60;;;1.70;;
52386;SDS011;38317;53.084;6.960;2023-09-18T15:07:09;4.95;;;1.70;;
52386;SDS011;38317;53.084;6.960;2023-09-18T15:09:39;5.25;;;1.50;;
52386;SDS011;38317;53.084;6.960;2023-09-18T15:12:05;5.32;;;1.30;;
52386;SDS011;38317;53.084;6.960;2023-09-18T15:14:37;4.80;;;1.98;;
52386;SDS011;38317;53.084;6.960;2023-09-18T15:17:04;3.67;;;1.55;;
52386;SDS011;38317;53.084;6.960;2023-09-18T15:19:33;4.78;;;1.73;;
52386;SDS011;38317;53.084;6.960;2023-09-18T15:21:59;4.28;;;1.60;;
52386;SDS011;38317;53.084;6.960;2023-09-18T15:24:26;4.25;;;1.42;;
52386;SDS011;38317;53.084;6.960;2023-09-18T15:26:52;3.47;;;1.63;;
52386;SDS011;38317;53.084;6.960;2023-09-18T15:29:19;4.30;;;1.48;;
52386;SDS011;38317;53.084;6.960;2023-09-18T15:31:48;3.65;;;1.13;;
52386;SDS011;38317;53.084;6.960;2023-09-18T15:34:14;2.30;;;1.10;;
52386;SDS011;38317;53.084;6.960;2023-09-18T15:36:42;2.00;;;1.08;;
52386;SDS011;38317;53.084;6.960;2023-09-18T15:39:11;3.40;;;1.60;;
52386;SDS011;38317;53.084;6.960;2023-09-18T15:41:42;3.90;;;1.30;;
52386;SDS011;38317;53.084;6.960;2023-09-18T15:44:08;3.58;;;1.30;;
52386;SDS011;38317;53.084;6.960;2023-09-18T15:46:35;4.10;;;1.60;;
52386;SDS011;38317;53.084;6.960;2023-09-18T15:49:01;3.15;;;1.40;;
52386;SDS011;38317;53.084;6.960;2023-09-18T15:51:27;4.80;;;1.70;;
52386;SDS011;38317;53.084;6.960;2023-09-18T15:53:54;2.63;;;1.35;;
52386;SDS011;38317;53.084;6.960;2023-09-18T15:56:20;4.22;;;1.30;;
52386;SDS011;38317;53.084;6.960;2023-09-18T15:58:46;3.78;;;1.35;;